Time;durP1;ratioP1;P1;durP2;ratioP2;P2;SDS_P1;SDS_P2;PMS_P1;PMS_P2;Temp;Humidity;BMP_temperature;BMP_pressure;BME280_temperature;BME280_humidity;BME280_pressure;Samples;Min_cycle;Max_cycle;Signal;HPM_P1;HPM_P2
2022/05/07 04:01:40;;;;;;;32.97;22.70;;;12.30;99.90;;;;;;5367054;23;20067;-80
2022/05/07 04:04:06;;;;;;;34.63;22.73;;;12.20;99.90;;;;;;4940589;29;20170;-82
2022/05/07 04:06:35;;;;;;;33.47;23.20;;;12.30;99.90;;;;;;4940789;29;20047;-82
2022/05/07 04:09:01;;;;;;;36.78;23.42;;;12.30;99.90;;;;;;4958154;29;20035;-81
2022/05/07 04:11:27;;;;;;;34.65;23.55;;;12.20;99.90;;;;;;4957480;29;20050;-81
2022/05/07 04:13:53;;;;;;;33.67;23.65;;;12.20;99.90;;;;;;4940638;29;20075;-81
2022/05/07 04:16:19;;;;;;;37.72;23.60;;;12.30;99.90;;;;;;4940940;29;20078;-81
2022/05/07 04:18:44;;;;;;;35.45;24.70;;;12.30;99.90;;;;;;4958044;29;20446;-82
2022/05/07 04:21:10;;;;;;;35.17;24.92;;;12.30;99.90;;;;;;4940264;29;20050;-82
2022/05/07 04:23:35;;;;;;;36.88;23.60;;;12.30;99.90;;;;;;4940735;29;20089;-81
2022/05/07 04:26:01;;;;;;;36.50;23.42;;;12.30;99.90;;;;;;4940806;29;20043;-80
2022/05/07 04:28:26;;;;;;;32.97;23.10;;;12.30;99.90;;;;;;4957491;28;20042;-81
2022/05/07 04:30:52;;;;;;;31.77;22.20;;;12.30;99.90;;;;;;4958064;29;20496;-82
2022/05/07 04:33:18;;;;;;;35.05;22.63;;;12.30;99.90;;;;;;4940702;29;20411;-81
2022/05/07 04:35:43;;;;;;;38.55;23.65;;;12.30;99.90;;;;;;4940734;29;20433;-82
2022/05/07 04:38:09;;;;;;;33.75;23.27;;;12.30;99.90;;;;;;4940708;29;20042;-82
2022/05/07 04:40:34;;;;;;;32.83;22.60;;;12.30;99.90;;;;;;4957679;29;20040;-79
2022/05/07 04:43:00;;;;;;;33.95;22.90;;;12.30;99.90;;;;;;4940313;29;20046;-81
2022/05/07 04:45:27;;;;;;;34.28;22.60;;;12.30;99.90;;;;;;4940384;29;20475;-81
2022/05/07 04:47:53;;;;;;;35.55;22.88;;;12.30;99.90;;;;;;4957724;29;20078;-81
2022/05/07 04:50:19;;;;;;;35.97;23.10;;;12.40;99.90;;;;;;4940159;29;20427;-80
2022/05/07 04:52:44;;;;;;;33.33;23.40;;;12.40;99.90;;;;;;4940164;29;20047;-80
2022/05/07 04:55:10;;;;;;;31.20;23.02;;;12.50;99.90;;;;;;4940240;29;20058;-81
2022/05/07 04:57:36;;;;;;;35.08;23.60;;;12.50;99.90;;;;;;4940234;29;20069;-81
2022/05/07 05:00:04;;;;;;;31.55;23.08;;;12.50;99.90;;;;;;4940612;29;20070;-80
2022/05/07 05:02:29;;;;;;;34.30;22.90;;;12.60;99.90;;;;;;4939285;29;20039;-80
2022/05/07 05:04:55;;;;;;;33.10;22.60;;;12.60;99.90;;;;;;4923646;29;20401;-80
2022/05/07 05:07:20;;;;;;;34.85;22.83;;;12.60;99.90;;;;;;4939697;29;20039;-81
2022/05/07 05:09:46;;;;;;;37.35;23.85;;;12.60;99.90;;;;;;4957397;29;20035;-81
2022/05/07 05:12:12;;;;;;;33.35;23.73;;;12.70;99.90;;;;;;4957217;29;20054;-81
2022/05/07 05:17:22;;;;;;;35.88;24.27;;;12.70;99.90;;;;;;4939671;29;20047;-80
2022/05/07 05:19:47;;;;;;;36.08;25.17;;;12.80;99.90;;;;;;4939454;29;20041;-80
2022/05/07 05:22:13;;;;;;;33.33;24.05;;;12.80;99.90;;;;;;4938949;29;20051;-81
2022/05/07 05:24:39;;;;;;;33.83;23.83;;;12.80;99.90;;;;;;4939038;29;20048;-80
2022/05/07 05:27:04;;;;;;;34.63;24.65;;;12.80;99.90;;;;;;4923250;29;20091;-80
2022/05/07 05:29:30;;;;;;;40.40;24.73;;;12.80;99.90;;;;;;4939033;29;20048;-80
2022/05/07 05:31:56;;;;;;;37.38;25.38;;;12.90;99.90;;;;;;4923331;29;20046;-81
2022/05/07 05:34:22;;;;;;;40.40;26.33;;;12.90;99.90;;;;;;4923387;29;20503;-81
2022/05/07 05:36:47;;;;;;;35.97;24.55;;;13.00;99.90;;;;;;4938821;29;20062;-81
2022/05/07 05:39:13;;;;;;;39.10;25.77;;;13.00;99.90;;;;;;4938836;29;20534;-80
2022/05/07 05:41:41;;;;;;;37.80;25.90;;;13.10;99.90;;;;;;4955919;29;20039;-80
2022/05/07 05:44:08;;;;;;;38.38;25.38;;;13.10;99.90;;;;;;4956292;29;20135;-79
2022/05/07 05:46:33;;;;;;;39.15;26.10;;;13.10;99.90;;;;;;4938640;29;20137;-81
2022/05/07 05:48:59;;;;;;;37.47;24.75;;;13.10;99.90;;;;;;4938725;29;20066;-79
2022/05/07 05:51:24;;;;;;;35.10;24.83;;;13.10;99.90;;;;;;4938721;29;20047;-80
2022/05/07 05:53:51;;;;;;;39.10;25.63;;;13.20;99.90;;;;;;4939402;29;20054;-84
2022/05/07 05:56:16;;;;;;;38.70;25.90;;;13.20;99.90;;;;;;4956948;29;20383;-78
2022/05/07 05:58:42;;;;;;;37.38;25.25;;;13.20;99.90;;;;;;4938678;29;20043;-78
2022/05/07 06:01:07;;;;;;;38.22;25.63;;;13.20;99.90;;;;;;4938330;29;20499;-78
2022/05/07 06:03:34;;;;;;;40.30;25.80;;;13.30;99.90;;;;;;4938740;29;20093;-78
2022/05/07 06:05:59;;;;;;;37.17;24.60;;;13.40;99.90;;;;;;4955865;29;20043;-79
2022/05/07 06:08:25;;;;;;;37.45;26.15;;;13.30;99.90;;;;;;4955859;29;20101;-79
2022/05/07 06:10:52;;;;;;;38.60;25.00;;;13.30;99.90;;;;;;4938525;29;20047;-79
2022/05/07 06:13:19;;;;;;;37.88;25.85;;;13.40;99.90;;;;;;4938591;29;20051;-79
2022/05/07 06:15:45;;;;;;;39.20;25.52;;;13.40;99.90;;;;;;4955919;29;20109;-78
2022/05/07 06:18:11;;;;;;;35.30;24.52;;;13.40;99.90;;;;;;4922352;29;20051;-78
2022/05/07 06:20:37;;;;;;;38.47;24.85;;;13.40;99.90;;;;;;4937951;29;20054;-80
2022/05/07 06:23:02;;;;;;;34.67;23.13;;;13.30;99.90;;;;;;4951829;29;20039;-79
2022/05/07 06:28:13;;;;;;;36.63;23.77;;;13.30;99.90;;;;;;4919483;29;20385;-78
2022/05/07 06:30:39;;;;;;;34.58;23.65;;;13.30;99.90;;;;;;4919275;29;20384;-79
2022/05/07 06:33:04;;;;;;;34.97;23.92;;;13.40;99.90;;;;;;4903322;29;20046;-78
2022/05/07 06:35:32;;;;;;;36.72;23.73;;;13.30;99.90;;;;;;4920662;29;20045;-75
2022/05/07 06:37:57;;;;;;;34.40;23.60;;;13.40;99.90;;;;;;4923847;29;20511;-76
2022/05/07 06:40:23;;;;;;;35.58;22.05;;;13.40;99.90;;;;;;4920295;29;20152;-84
2022/05/07 06:42:49;;;;;;;37.90;22.92;;;13.50;99.90;;;;;;4904396;29;20079;-78
2022/05/07 06:45:15;;;;;;;35.88;22.90;;;13.50;99.90;;;;;;4936663;29;20081;-79
2022/05/07 06:47:41;;;;;;;33.58;23.15;;;13.60;99.90;;;;;;4936343;29;20036;-80
2022/05/07 06:50:07;;;;;;;33.05;21.83;;;13.70;99.90;;;;;;4918838;29;20437;-79
2022/05/07 06:52:41;;;;;;;33.10;21.98;;;13.80;99.90;;;;;;4936065;29;20099;-78
2022/05/07 06:55:07;;;;;;;33.17;22.30;;;13.90;99.90;;;;;;4918894;29;20170;-80
2022/05/07 06:57:32;;;;;;;31.90;21.25;;;14.00;99.90;;;;;;4918609;29;20123;-79
2022/05/07 06:59:58;;;;;;;30.63;20.33;;;14.10;99.90;;;;;;4936127;29;20039;-80
2022/05/07 07:02:24;;;;;;;31.17;20.35;;;14.10;99.90;;;;;;4902852;29;20187;-80
2022/05/07 07:04:49;;;;;;;33.88;21.13;;;14.10;99.90;;;;;;4918710;29;20039;-80
2022/05/07 07:07:16;;;;;;;33.55;21.10;;;14.20;99.90;;;;;;4919659;29;20385;-81
2022/05/07 07:09:41;;;;;;;32.53;19.92;;;14.20;99.90;;;;;;4918660;29;20050;-80
2022/05/07 07:12:09;;;;;;;32.10;20.40;;;14.30;99.90;;;;;;4918874;29;20048;-79
2022/05/07 07:14:35;;;;;;;29.02;18.85;;;14.40;99.90;;;;;;4918427;29;20514;-79
2022/05/07 07:17:00;;;;;;;33.47;19.35;;;14.40;99.90;;;;;;4903164;29;20044;-81
2022/05/07 07:19:26;;;;;;;34.75;21.85;;;14.50;99.90;;;;;;4946728;29;20484;-82
2022/05/07 07:21:52;;;;;;;33.80;20.60;;;14.60;99.90;;;;;;4955166;29;20065;-80
2022/05/07 07:24:18;;;;;;;30.98;19.17;;;14.70;99.90;;;;;;4938162;29;20056;-79
2022/05/07 07:26:44;;;;;;;33.75;20.50;;;14.70;99.90;;;;;;4938188;29;20047;-79
2022/05/07 07:29:10;;;;;;;33.00;21.27;;;14.70;99.90;;;;;;4955010;29;20035;-78
2022/05/07 07:31:35;;;;;;;38.10;22.83;;;14.80;99.90;;;;;;4937631;29;20043;-80
2022/05/07 07:34:02;;;;;;;35.50;22.80;;;14.90;99.90;;;;;;4922147;29;20554;-80
2022/05/07 07:36:28;;;;;;;39.10;22.90;;;14.90;99.90;;;;;;4937653;29;20043;-82
2022/05/07 07:38:53;;;;;;;33.17;22.83;;;15.00;99.90;;;;;;4954885;29;20051;-79
2022/05/07 07:41:19;;;;;;;37.42;24.20;;;15.00;99.90;;;;;;4954615;29;20046;-82
2022/05/07 07:43:45;;;;;;;34.65;22.20;;;15.10;99.90;;;;;;4937139;29;20392;-80
2022/05/07 07:48:58;;;;;;;36.45;23.75;;;15.20;99.90;;;;;;4955262;29;20036;-84
2022/05/07 07:51:24;;;;;;;37.72;23.42;;;15.30;99.90;;;;;;4921864;29;20113;-81
2022/05/07 07:53:49;;;;;;;36.85;23.42;;;15.30;99.90;;;;;;4954959;29;20457;-81
2022/05/07 07:56:16;;;;;;;38.28;25.48;;;15.30;99.90;;;;;;4954690;29;20066;-82
2022/05/07 07:58:42;;;;;;;39.47;25.63;;;15.30;99.90;;;;;;4922223;29;20039;-83
2022/05/07 08:01:07;;;;;;;39.22;27.33;;;15.40;99.90;;;;;;4937570;28;20043;-84
2022/05/07 08:03:33;;;;;;;41.03;26.92;;;15.40;99.90;;;;;;4958320;29;20036;-81
2022/05/07 08:05:59;;;;;;;39.60;25.75;;;15.40;99.90;;;;;;4958158;29;20035;-82
2022/05/07 08:13:53;;;;;;;40.95;26.20;;;15.60;99.90;;;;;;4957921;29;20043;-80
2022/05/07 08:16:20;;;;;;;41.20;26.33;;;15.70;99.90;;;;;;4941093;29;20045;-80
2022/05/07 08:18:46;;;;;;;40.85;26.10;;;15.70;99.90;;;;;;4940541;29;20455;-81
2022/05/07 08:21:12;;;;;;;37.10;26.48;;;15.70;99.90;;;;;;4940090;29;20519;-80
2022/05/07 08:23:39;;;;;;;38.85;25.85;;;15.80;99.90;;;;;;4940697;29;20387;-78
2022/05/07 08:26:06;;;;;;;38.03;28.08;;;15.80;99.90;;;;;;4924166;29;20087;-80
2022/05/07 08:28:33;;;;;;;43.13;28.15;;;15.90;99.90;;;;;;4940106;29;20099;-79
2022/05/07 08:31:00;;;;;;;40.28;27.23;;;16.00;99.90;;;;;;4957711;29;20391;-81
2022/05/07 08:33:26;;;;;;;39.58;26.83;;;16.00;99.90;;;;;;4940486;29;20081;-80
2022/05/07 08:35:52;;;;;;;40.33;27.85;;;16.00;99.90;;;;;;4940394;29;20399;-79
2022/05/07 08:38:19;;;;;;;38.08;27.08;;;16.00;99.90;;;;;;4924382;29;20039;-81
2022/05/07 08:40:44;;;;;;;37.85;27.10;;;16.10;99.90;;;;;;4940149;29;20085;-80
2022/05/07 08:43:10;;;;;;;37.00;26.80;;;16.20;99.90;;;;;;4940736;29;20485;-80
2022/05/07 08:45:39;;;;;;;37.53;27.15;;;16.30;99.90;;;;;;4940140;29;20042;-83
2022/05/07 08:48:05;;;;;;;39.92;26.00;;;16.40;99.90;;;;;;4940667;29;20392;-83
2022/05/07 08:50:30;;;;;;;35.85;26.20;;;16.50;99.90;;;;;;4957356;29;20042;-83
2022/05/07 08:52:57;;;;;;;38.63;25.40;;;16.50;99.90;;;;;;4958386;29;20094;-82
2022/05/07 08:55:24;;;;;;;36.40;25.27;;;16.60;99.90;;;;;;4940840;29;20122;-82
2022/05/07 08:57:51;;;;;;;36.55;25.98;;;16.60;99.90;;;;;;4957295;29;20043;-82
2022/05/07 09:00:20;;;;;;;41.28;26.58;;;16.60;99.90;;;;;;4939631;28;20047;-83
2022/05/07 09:02:48;;;;;;;36.67;25.80;;;16.70;99.90;;;;;;4939826;29;20051;-83
2022/05/07 09:05:16;;;;;;;38.10;26.00;;;16.80;99.90;;;;;;4939139;29;20125;-82
2022/05/07 09:07:53;;;;;;;38.05;26.92;;;16.70;99.90;;;;;;4956847;29;20472;-84
2022/05/07 09:10:21;;;;;;;39.30;27.30;;;16.70;99.90;;;;;;4923671;29;20039;-82
2022/05/07 09:12:47;;;;;;;37.75;26.30;;;16.60;99.90;;;;;;4939209;28;20484;-82
2022/05/07 09:15:12;;;;;;;35.38;25.02;;;16.60;99.90;;;;;;4939367;29;20047;-82
2022/05/07 09:17:38;;;;;;;35.78;26.05;;;16.60;99.90;;;;;;4939729;29;20051;-83
2022/05/07 09:20:15;;;;;;;43.22;26.67;;;16.80;99.90;;;;;;4939694;29;20046;-82
2022/05/07 09:22:55;;;;;;;41.63;25.95;;;16.80;99.90;;;;;;4939264;29;20098;-82
2022/05/07 09:25:26;;;;;;;37.35;26.45;;;16.90;99.90;;;;;;4933767;29;20046;-84
2022/05/07 09:27:54;;;;;;;52.13;28.40;;;17.00;99.90;;;;;;4920062;29;20075;-82
2022/05/07 09:30:26;;;;;;;35.75;25.92;;;17.10;99.90;;;;;;4920229;29;20110;-84
2022/05/07 09:32:53;;;;;;;39.95;25.77;;;17.10;99.90;;;;;;4920722;29;20047;-82
2022/05/07 09:38:08;;;;;;;36.80;26.88;;;17.10;99.90;;;;;;4920768;29;20055;-82
2022/05/07 09:40:38;;;;;;;36.72;25.30;;;17.20;99.90;;;;;;4920533;29;20130;-83
2022/05/07 09:43:05;;;;;;;38.15;25.33;;;17.20;99.90;;;;;;4904822;29;20047;-81
2022/05/07 09:45:31;;;;;;;38.28;24.17;;;17.20;99.90;;;;;;4920266;29;20087;-82
2022/05/07 09:48:00;;;;;;;33.50;23.70;;;17.30;99.90;;;;;;4920808;29;20044;-82
2022/05/07 09:58:38;;;;;;;40.88;27.80;;;17.60;99.90;;;;;;4920439;29;20461;-83
2022/05/07 10:01:31;;;;;;;44.63;26.95;;;17.80;99.90;;;;;;4920239;29;20043;-84
2022/05/07 10:04:21;;;;;;;37.72;25.42;;;17.90;99.90;;;;;;4919898;29;20052;-82
2022/05/07 10:07:20;;;;;;;38.92;25.42;;;18.00;99.90;;;;;;4919953;29;20055;-83
2022/05/07 10:10:01;;;;;;;41.65;25.98;;;18.30;99.90;;;;;;4937256;29;20039;-82
2022/05/07 10:12:28;;;;;;;36.03;25.08;;;18.40;99.90;;;;;;4937327;29;20043;-82
2022/05/07 10:15:04;;;;;;;32.63;24.27;;;18.40;99.90;;;;;;4920324;29;20047;-82
2022/05/07 10:17:30;;;;;;;40.10;26.63;;;18.60;99.90;;;;;;4920384;29;20488;-83
2022/05/07 10:20:09;;;;;;;34.38;25.25;;;18.70;99.90;;;;;;4919871;29;20058;-83
2022/05/07 10:22:36;;;;;;;34.53;24.83;;;18.70;99.90;;;;;;4920015;29;20036;-82
2022/05/07 10:25:06;;;;;;;34.00;25.13;;;18.80;99.90;;;;;;4919158;29;20044;-84
2022/05/07 10:27:37;;;;;;;37.03;26.40;;;18.80;99.90;;;;;;4919971;29;20036;-82
2022/05/07 10:30:04;;;;;;;36.50;25.60;;;18.80;99.90;;;;;;4920013;29;20047;-83
2022/05/07 10:32:30;;;;;;;38.15;26.10;;;18.90;99.90;;;;;;4919717;29;20079;-82
2022/05/07 10:34:56;;;;;;;34.45;25.58;;;18.90;99.90;;;;;;4919754;29;20516;-81
2022/05/07 10:37:22;;;;;;;38.45;27.33;;;18.90;99.90;;;;;;4920322;29;20039;-81
2022/05/07 10:39:52;;;;;;;41.25;28.80;;;18.80;99.90;;;;;;4919634;29;20124;-82
2022/05/07 10:42:21;;;;;;;41.95;28.13;;;18.70;99.90;;;;;;4919606;29;20050;-81
2022/05/07 10:44:48;;;;;;;43.72;28.67;;;18.50;99.90;;;;;;4936767;29;20356;-81
2022/05/07 10:47:17;;;;;;;45.65;29.50;;;18.50;99.90;;;;;;4919581;29;20048;-81
2022/05/07 10:50:07;;;;;;;45.78;30.08;;;18.50;99.90;;;;;;4936215;29;20563;-80
2022/05/07 10:52:34;;;;;;;46.75;30.02;;;18.60;99.90;;;;;;4903947;29;20134;-84
2022/05/07 10:55:16;;;;;;;50.65;30.83;;;18.60;99.90;;;;;;4936105;29;20480;-79
2022/05/07 10:57:47;;;;;;;47.28;29.95;;;18.80;99.90;;;;;;4919680;29;20063;-89
2022/05/07 11:00:25;;;;;;;49.75;29.20;;;18.70;99.90;;;;;;4937268;29;20043;-84
2022/05/07 11:02:58;;;;;;;43.75;28.67;;;18.60;99.90;;;;;;4920245;29;20488;-87
2022/05/07 11:05:31;;;;;;;44.90;27.88;;;18.60;99.90;;;;;;4937409;29;20047;-88
2022/05/07 11:08:02;;;;;;;42.72;26.90;;;18.50;99.90;;;;;;4920246;29;20051;-86
2022/05/07 11:10:28;;;;;;;42.33;27.58;;;18.40;99.90;;;;;;4937698;29;20123;-86
2022/05/07 11:13:21;;;;;;;38.20;23.63;;;18.20;99.90;;;;;;4938304;29;20047;-86
2022/05/07 11:15:50;;;;;;;37.20;22.58;;;18.20;99.90;;;;;;4916469;29;20492;-86
2022/05/07 11:18:16;;;;;;;32.42;20.27;;;18.10;99.90;;;;;;4920363;29;20055;-87
2022/05/07 11:20:43;;;;;;;32.13;20.70;;;18.10;99.90;;;;;;4920589;29;20043;-88
2022/05/07 11:23:12;;;;;;;33.40;21.52;;;18.20;99.90;;;;;;4904536;29;20130;-87
2022/05/07 11:25:40;;;;;;;34.95;21.30;;;18.40;99.90;;;;;;4919668;29;20050;-87
2022/05/07 11:28:06;;;;;;;35.42;21.75;;;18.50;99.90;;;;;;4919927;29;20055;-88
2022/05/07 11:30:31;;;;;;;32.92;21.50;;;18.50;99.90;;;;;;4919657;29;20044;-86
2022/05/07 11:33:04;;;;;;;34.78;21.25;;;18.50;99.90;;;;;;4919108;29;20044;-86
2022/05/07 11:35:29;;;;;;;29.80;19.23;;;18.60;99.90;;;;;;4919509;29;20036;-87
2022/05/07 11:37:55;;;;;;;30.13;19.23;;;18.50;99.90;;;;;;4922859;29;20114;-86
2022/05/07 11:40:29;;;;;;;29.17;19.13;;;18.50;99.90;;;;;;4922761;29;20055;-88
2022/05/07 11:45:25;;;;;;;27.63;18.55;;;18.50;99.90;;;;;;4939893;29;20412;-87
2022/05/07 11:45:40;;;;;;;28.95;18.35;;;18.50;99.90;;;;;;4922806;29;20248;-89
2022/05/07 11:48:18;;;;;;;30.45;19.23;;;18.40;99.90;;;;;;4923904;29;20136;-86
2022/05/07 11:50:55;;;;;;;31.95;19.75;;;18.40;99.90;;;;;;4908538;29;20051;-87
2022/05/07 11:53:26;;;;;;;38.38;23.85;;;18.40;99.90;;;;;;4908143;29;20123;-86
2022/05/07 11:55:51;;;;;;;47.35;28.13;;;18.40;99.90;;;;;;4909022;29;20043;-85
2022/05/07 11:58:24;;;;;;;47.58;27.85;;;18.30;99.90;;;;;;4925072;29;20055;-86
2022/05/07 12:00:55;;;;;;;43.60;26.88;;;18.30;99.90;;;;;;4934206;29;20519;-84
2022/05/07 12:03:27;;;;;;;42.97;25.58;;;18.40;99.90;;;;;;4950255;29;20425;-86
2022/05/07 12:05:58;;;;;;;44.72;25.45;;;18.60;99.90;;;;;;4927453;29;20047;-85
2022/05/07 12:08:30;;;;;;;41.33;25.08;;;18.90;99.90;;;;;;4936040;29;20055;-84
2022/05/07 12:11:06;;;;;;;42.47;25.88;;;19.20;99.90;;;;;;4941192;29;20084;-86
2022/05/07 12:13:32;;;;;;;42.03;25.55;;;19.80;99.90;;;;;;4935350;29;20054;-86
2022/05/07 12:18:48;;;;;;;39.55;25.02;;;20.30;99.90;;;;;;4924183;29;20043;-85
2022/05/07 12:21:15;;;;;;;40.47;24.85;;;20.00;99.90;;;;;;4923458;29;20096;-85
2022/05/07 12:31:52;;;;;;;36.03;21.63;;;19.00;99.90;;;;;;4922474;29;20051;-85
2022/05/07 12:34:18;;;;;;;34.20;21.73;;;19.10;99.90;;;;;;4922844;29;20408;-86
2022/05/07 12:36:45;;;;;;;34.33;21.88;;;19.20;99.90;;;;;;4940006;29;20069;-83
2022/05/07 12:39:11;;;;;;;32.67;20.83;;;19.30;99.90;;;;;;4922924;29;20047;-85
2022/05/07 12:41:43;;;;;;;35.10;21.00;;;19.40;99.90;;;;;;4922506;29;20179;-84
2022/05/07 12:44:09;;;;;;;29.38;19.05;;;19.70;99.90;;;;;;4923701;29;20059;-85
2022/05/07 12:46:35;;;;;;;28.70;16.67;;;19.90;99.90;;;;;;4922920;29;20461;-85
2022/05/07 12:49:02;;;;;;;25.60;16.85;;;19.90;99.90;;;;;;4938978;29;20040;-84
2022/05/07 12:51:28;;;;;;;27.65;16.42;;;19.90;99.90;;;;;;4922478;29;20051;-85
2022/05/07 12:53:54;;;;;;;24.65;15.40;;;20.10;99.90;;;;;;4939581;29;20488;-85
2022/05/07 12:56:22;;;;;;;27.95;14.88;;;20.20;99.90;;;;;;4939482;29;20040;-85
2022/05/07 12:58:50;;;;;;;23.27;14.40;;;20.10;99.90;;;;;;4906625;29;20122;-85
2022/05/07 13:01:16;;;;;;;21.30;13.73;;;19.90;99.90;;;;;;4922038;29;20457;-85
2022/05/07 13:03:42;;;;;;;21.90;13.35;;;19.70;99.90;;;;;;4906476;29;20130;-84
2022/05/07 13:06:08;;;;;;;25.95;15.98;;;19.60;99.90;;;;;;4939023;29;20465;-84
2022/05/07 13:08:33;;;;;;;23.15;14.75;;;19.60;99.90;;;;;;4921742;29;20500;-84
2022/05/07 13:10:59;;;;;;;24.10;14.95;;;19.90;99.90;;;;;;4921638;29;20040;-84
2022/05/07 13:13:24;;;;;;;19.83;12.88;;;20.40;99.90;;;;;;4921624;29;20086;-86
2022/05/07 13:15:51;;;;;;;18.77;12.00;;;20.80;99.90;;;;;;4938477;29;20043;-85
2022/05/07 13:18:17;;;;;;;20.08;12.15;;;20.70;99.90;;;;;;4906279;29;20055;-82
2022/05/07 13:20:43;;;;;;;16.52;11.65;;;20.20;99.90;;;;;;4921574;29;20039;-84
2022/05/07 13:23:09;;;;;;;18.15;11.57;;;19.80;99.90;;;;;;4921397;29;20059;-84
2022/05/07 13:25:34;;;;;;;19.65;12.07;;;19.60;99.90;;;;;;4921622;29;20052;-83
2022/05/07 13:28:00;;;;;;;18.63;11.55;;;19.50;99.90;;;;;;4921373;29;20039;-83
2022/05/07 13:30:26;;;;;;;20.52;11.48;;;19.50;99.90;;;;;;4921219;29;20058;-84
2022/05/07 13:32:52;;;;;;;18.10;11.18;;;19.50;99.90;;;;;;4921723;29;20371;-84
2022/05/07 13:35:18;;;;;;;18.20;10.88;;;19.50;99.90;;;;;;4938551;29;20071;-84
2022/05/07 13:37:44;;;;;;;16.90;10.45;;;19.60;99.90;;;;;;4921365;29;20058;-83
2022/05/07 13:40:10;;;;;;;16.42;10.32;;;19.80;99.90;;;;;;4937353;29;20044;-85
2022/05/07 13:42:37;;;;;;;18.30;10.27;;;20.10;99.90;;;;;;4920378;29;20111;-83
2022/05/07 13:45:05;;;;;;;15.45;9.00;;;20.30;99.90;;;;;;4920473;29;20084;-83
2022/05/07 13:47:31;;;;;;;17.48;10.82;;;20.50;99.90;;;;;;4920171;29;20118;-84
2022/05/07 13:49:57;;;;;;;14.85;9.98;;;20.60;99.90;;;;;;4920692;29;20075;-83
2022/05/07 13:52:22;;;;;;;17.05;10.35;;;20.50;99.90;;;;;;4920354;29;20059;-83
2022/05/07 13:54:48;;;;;;;15.52;9.57;;;20.30;99.90;;;;;;4920795;29;20047;-81
2022/05/07 13:57:14;;;;;;;18.08;10.10;;;20.20;99.90;;;;;;4937321;29;20075;-83
2022/05/07 13:59:39;;;;;;;15.82;9.95;;;20.10;99.90;;;;;;4920052;29;20047;-84
2022/05/07 14:02:05;;;;;;;16.42;9.82;;;20.10;99.90;;;;;;4936490;29;20040;-83
2022/05/07 14:04:31;;;;;;;15.10;9.25;;;20.20;99.90;;;;;;4919572;29;20040;-85
2022/05/07 14:06:59;;;;;;;14.48;9.50;;;20.10;99.90;;;;;;4920101;29;20043;-84
2022/05/07 14:09:25;;;;;;;12.40;8.02;;;20.00;99.90;;;;;;4919861;29;20050;-83
2022/05/07 14:11:51;;;;;;;10.98;7.05;;;19.90;99.90;;;;;;4920894;29;20118;-82
2022/05/07 14:14:16;;;;;;;11.27;7.85;;;19.90;99.90;;;;;;4920262;29;20447;-84
2022/05/07 14:16:42;;;;;;;10.93;7.60;;;19.80;99.90;;;;;;4920544;29;20043;-82
2022/05/07 14:19:07;;;;;;;12.05;8.55;;;19.80;99.90;;;;;;4920667;29;20103;-84
2022/05/07 14:21:35;;;;;;;12.48;7.85;;;19.80;99.90;;;;;;4919802;29;20075;-83
2022/05/07 14:24:02;;;;;;;12.52;8.52;;;19.80;99.90;;;;;;4937282;29;20110;-84
2022/05/07 14:26:28;;;;;;;11.85;8.07;;;19.80;99.90;;;;;;4920097;29;20408;-86
2022/05/07 14:28:53;;;;;;;13.07;7.28;;;19.70;99.90;;;;;;4919455;29;20050;-82
2022/05/07 14:31:19;;;;;;;11.60;8.15;;;19.60;99.90;;;;;;4919119;29;20522;-84
2022/05/07 14:33:47;;;;;;;11.15;7.22;;;19.60;99.90;;;;;;4919371;29;20043;-86
2022/05/07 14:36:12;;;;;;;14.55;7.20;;;19.60;99.90;;;;;;4919189;29;20459;-85
2022/05/07 14:38:38;;;;;;;11.52;7.25;;;19.60;99.90;;;;;;4919012;29;20048;-85
2022/05/07 14:41:03;;;;;;;12.52;7.07;;;19.70;99.90;;;;;;4919313;29;20047;-85
2022/05/07 14:43:29;;;;;;;8.48;6.00;;;19.70;99.90;;;;;;4919342;29;20032;-85
2022/05/07 14:45:55;;;;;;;10.07;5.43;;;19.80;99.90;;;;;;4936628;29;20184;-85
2022/05/07 14:48:20;;;;;;;10.68;5.38;;;19.90;99.90;;;;;;4918885;29;20079;-83
2022/05/07 14:50:46;;;;;;;6.90;5.05;;;20.20;99.90;;;;;;4919045;29;20044;-84
2022/05/07 14:53:12;;;;;;;9.45;5.45;;;20.40;99.90;;;;;;4918860;29;20124;-83
2022/05/07 14:55:38;;;;;;;11.00;5.82;;;20.80;99.90;;;;;;4918934;29;20131;-85
2022/05/07 14:58:04;;;;;;;9.15;5.85;;;21.20;99.90;;;;;;4919697;29;20485;-86
2022/05/07 15:00:29;;;;;;;9.40;6.10;;;21.20;99.90;;;;;;4929619;28;20503;-88
2022/05/07 15:02:55;;;;;;;9.52;5.88;;;21.20;99.90;;;;;;4937885;29;20404;-86
2022/05/07 15:05:21;;;;;;;11.57;6.55;;;21.30;99.90;;;;;;4955527;29;20035;-87
2022/05/07 15:07:47;;;;;;;9.18;6.05;;;21.50;99.90;;;;;;4937859;29;20050;-86
2022/05/07 15:13:09;;;;;;;8.43;5.97;;;21.90;99.90;;;;;;4941370;29;20047;-89
2022/05/07 15:15:34;;;;;;;12.85;5.57;;;22.00;99.90;;;;;;4941465;29;20550;-85
2022/05/07 15:18:00;;;;;;;8.55;5.47;;;22.00;99.90;;;;;;4926730;29;20082;-85
2022/05/07 15:20:25;;;;;;;8.10;5.40;;;22.10;99.90;;;;;;4959122;29;20039;-86
2022/05/07 15:22:51;;;;;;;9.15;5.80;;;22.10;99.90;;;;;;4942214;29;20043;-85
2022/05/07 15:25:18;;;;;;;7.75;5.13;;;21.90;99.90;;;;;;4941948;29;20047;-83
2022/05/07 15:27:47;;;;;;;11.10;5.78;;;21.90;99.90;;;;;;4941509;29;20214;-83
2022/05/07 15:30:17;;;;;;;9.48;5.53;;;22.00;99.90;;;;;;4941570;29;20043;-84
2022/05/07 15:38:12;;;;;;;8.30;5.03;;;21.80;99.90;;;;;;4941319;29;20107;-85
2022/05/07 15:40:38;;;;;;;9.95;4.82;;;21.70;99.90;;;;;;4941286;29;20456;-83
2022/05/07 15:43:05;;;;;;;6.95;4.43;;;21.70;99.90;;;;;;4941236;29;20051;-86
2022/05/07 15:45:32;;;;;;;6.35;4.35;;;21.90;99.90;;;;;;4958440;29;20067;-86
2022/05/07 15:47:58;;;;;;;6.07;3.90;;;21.90;99.90;;;;;;4925751;29;20043;-87
2022/05/07 15:50:24;;;;;;;7.15;3.38;;;21.80;99.90;;;;;;4941348;29;20411;-83
2022/05/07 15:52:53;;;;;;;6.80;4.18;;;21.60;99.90;;;;;;4941554;29;20035;-83
2022/05/07 15:55:19;;;;;;;7.45;4.10;;;21.60;99.90;;;;;;4941019;29;20051;-83
2022/05/07 15:57:45;;;;;;;6.05;4.15;;;21.30;99.90;;;;;;4941218;29;20495;-85
2022/05/07 16:00:11;;;;;;;5.25;3.63;;;21.20;99.90;;;;;;4940759;29;20079;-85
2022/05/07 16:02:37;;;;;;;4.85;2.80;;;21.10;99.90;;;;;;4940679;29;20187;-85
2022/05/07 16:05:03;;;;;;;4.25;2.70;;;21.10;99.90;;;;;;4958245;29;20114;-85
2022/05/07 16:07:29;;;;;;;5.22;3.30;;;21.10;99.90;;;;;;4941378;29;20097;-84
2022/05/07 16:09:55;;;;;;;5.07;3.30;;;21.10;99.90;;;;;;4940700;29;20047;-83
2022/05/07 16:12:20;;;;;;;5.90;3.70;;;21.20;99.90;;;;;;4957621;29;20049;-84
2022/05/07 16:14:46;;;;;;;5.93;3.92;;;21.20;99.90;;;;;;4940751;29;20051;-83
2022/05/07 16:17:11;;;;;;;7.70;3.45;;;21.20;99.90;;;;;;4940441;29;20043;-83
2022/05/07 16:19:39;;;;;;;4.57;3.30;;;21.20;99.90;;;;;;4940537;29;20047;-83
2022/05/07 16:22:06;;;;;;;5.65;3.28;;;21.10;99.90;;;;;;4940182;28;20118;-85
2022/05/07 16:27:15;;;;;;;7.57;4.10;;;21.00;99.90;;;;;;4940677;29;20134;-83
2022/05/07 16:29:41;;;;;;;5.95;3.80;;;20.70;99.90;;;;;;4940679;29;20081;-85
2022/05/07 16:32:07;;;;;;;6.78;3.78;;;20.60;99.90;;;;;;4940317;29;20051;-83
2022/05/07 16:34:34;;;;;;;5.15;3.40;;;20.60;99.90;;;;;;4940121;29;20055;-85
2022/05/07 16:37:02;;;;;;;5.50;3.13;;;20.50;99.90;;;;;;4957769;29;20098;-84
2022/05/07 16:39:27;;;;;;;5.25;2.92;;;20.50;99.90;;;;;;4957287;29;20075;-86
2022/05/07 16:41:53;;;;;;;9.77;4.47;;;20.40;99.90;;;;;;4924589;29;20078;-85
2022/05/07 16:44:18;;;;;;;6.40;3.65;;;20.30;99.90;;;;;;4957501;29;20502;-86
2022/05/07 16:46:44;;;;;;;7.18;3.17;;;20.10;99.90;;;;;;4957867;29;20039;-85
2022/05/07 16:49:15;;;;;;;10.20;4.78;;;20.10;99.90;;;;;;4940293;29;20094;-87
2022/05/07 16:51:41;;;;;;;4.95;2.67;;;20.10;99.90;;;;;;4924540;29;20043;-84
2022/05/07 16:54:11;;;;;;;9.15;2.65;;;20.10;99.90;;;;;;4940030;29;20093;-85
2022/05/07 16:56:37;;;;;;;5.60;2.20;;;19.90;99.90;;;;;;4939949;29;20043;-86
2022/05/07 16:59:02;;;;;;;5.88;2.25;;;19.80;99.90;;;;;;4940044;29;20118;-86
2022/05/07 17:01:28;;;;;;;4.65;2.17;;;19.70;99.90;;;;;;4939803;29;20186;-86
2022/05/07 17:03:54;;;;;;;5.05;2.50;;;19.70;99.90;;;;;;4940476;29;20122;-86
2022/05/07 17:06:27;;;;;;;6.65;2.17;;;19.60;99.90;;;;;;4939866;29;20039;-85
2022/05/07 17:08:53;;;;;;;5.65;3.13;;;19.50;99.90;;;;;;4940162;29;20047;-86
2022/05/07 17:11:18;;;;;;;3.92;2.50;;;19.50;99.90;;;;;;4939780;29;20046;-86
2022/05/07 17:13:44;;;;;;;7.15;3.45;;;19.50;99.90;;;;;;4940175;29;20102;-86
2022/05/07 17:16:10;;;;;;;8.65;2.90;;;19.40;99.90;;;;;;4923996;29;20511;-86
2022/05/07 17:18:35;;;;;;;10.85;3.33;;;19.30;99.90;;;;;;4956688;29;20031;-86